Time;durP1;ratioP1;P1;durP2;ratioP2;P2;SDS_P1;SDS_P2;PMS_P1;PMS_P2;Temp;Humidity;BMP_temperature;BMP_pressure;BME280_temperature;BME280_humidity;BME280_pressure;Samples;Min_cycle;Max_cycle;Signal;HPM_P1;HPM_P2
2021/08/30 00:01:50;;;;;;;33.58;21.30;;;;;;;15.55;100.00;101455.00;4978661;28;20056;-82
2021/08/30 00:04:15;;;;;;;30.02;20.20;;;;;;;15.54;100.00;101460.59;5007641;28;20626;-81
2021/08/30 00:06:41;;;;;;;30.25;20.98;;;;;;;15.53;100.00;101457.03;4996742;28;20057;-82
2021/08/30 00:09:08;;;;;;;28.48;20.40;;;;;;;15.53;100.00;101458.88;5002068;28;20046;-82
2021/08/30 00:11:34;;;;;;;30.08;21.80;;;;;;;15.54;100.00;101452.47;4997108;28;20042;-82
2021/08/30 00:13:59;;;;;;;33.42;21.73;;;;;;;15.56;100.00;101466.63;4997832;28;20263;-81
2021/08/30 00:16:25;;;;;;;30.75;22.38;;;;;;;15.55;100.00;101456.84;4999181;28;20129;-82
2021/08/30 00:18:51;;;;;;;32.13;22.42;;;;;;;15.55;100.00;101457.69;5000545;28;21485;-81
2021/08/30 00:21:16;;;;;;;31.13;21.23;;;;;;;15.54;100.00;101453.31;4997635;28;20042;-82
2021/08/30 00:23:43;;;;;;;30.27;21.17;;;;;;;15.56;100.00;101456.69;4987681;28;20072;-81
2021/08/30 00:26:08;;;;;;;31.52;21.88;;;;;;;15.57;100.00;101460.22;4998593;28;20255;-82
2021/08/30 00:28:34;;;;;;;30.85;21.35;;;;;;;15.56;100.00;101464.81;4993821;28;20042;-83
2021/08/30 00:30:59;;;;;;;31.42;21.73;;;;;;;15.58;100.00;101462.72;5000539;28;20108;-82
2021/08/30 00:33:25;;;;;;;29.88;21.58;;;;;;;15.57;100.00;101462.94;4987720;28;20042;-82
2021/08/30 00:35:50;;;;;;;29.75;20.23;;;;;;;15.55;100.00;101465.81;4997323;28;20577;-82
2021/08/30 00:38:15;;;;;;;28.65;20.95;;;;;;;15.58;100.00;101460.03;4997967;28;20514;-80
2021/08/30 00:40:41;;;;;;;31.67;21.55;;;;;;;15.60;100.00;101462.56;4979628;28;20081;-80
2021/08/30 00:43:08;;;;;;;27.85;21.27;;;;;;;15.60;100.00;101467.16;4996486;28;20050;-82
2021/08/30 00:45:35;;;;;;;27.80;21.38;;;;;;;15.61;100.00;101466.13;4994143;28;20145;-81
2021/08/30 00:48:01;;;;;;;27.05;20.48;;;;;;;15.62;100.00;101465.06;4997466;28;20411;-82
2021/08/30 00:50:27;;;;;;;28.85;20.75;;;;;;;15.60;100.00;101467.97;4993309;28;20046;-82
2021/08/30 00:52:53;;;;;;;32.92;21.75;;;;;;;15.61;100.00;101460.69;4996190;28;20078;-83
2021/08/30 00:55:19;;;;;;;28.73;21.15;;;;;;;15.62;100.00;101467.78;4994986;28;20046;-83
2021/08/30 00:57:45;;;;;;;29.55;20.30;;;;;;;15.60;100.00;101461.72;4994314;28;20241;-82
2021/08/30 01:00:12;;;;;;;28.27;20.35;;;;;;;15.64;100.00;101469.28;4997678;28;20125;-81
2021/08/30 01:02:40;;;;;;;27.70;21.42;;;;;;;15.64;100.00;101473.88;4997972;28;20301;-82
2021/08/30 01:05:07;;;;;;;29.75;21.45;;;;;;;15.60;100.00;101467.16;4998884;28;20462;-82
2021/08/30 01:07:35;;;;;;;31.55;22.50;;;;;;;15.62;100.00;101463.22;4990977;28;20532;-81
2021/08/30 01:10:07;;;;;;;28.33;21.92;;;;;;;15.60;100.00;101467.16;4998913;28;20072;-82
2021/08/30 01:12:37;;;;;;;32.17;22.67;;;;;;;15.59;100.00;101460.88;4995087;28;20030;-81
2021/08/30 01:15:10;;;;;;;31.05;23.52;;;;;;;15.58;100.00;101459.19;4997281;28;20507;-83
2021/08/30 01:17:38;;;;;;;33.40;23.77;;;;;;;15.58;100.00;101465.44;4996465;28;20502;-81
2021/08/30 01:20:10;;;;;;;35.97;24.23;;;;;;;15.61;100.00;101468.81;4995230;28;20060;-81
2021/08/30 01:22:39;;;;;;;36.47;25.40;;;;;;;15.60;100.00;101464.44;4989982;28;20058;-81
2021/08/30 01:25:05;;;;;;;38.92;26.73;;;;;;;15.58;100.00;101465.44;4996894;28;20037;-81
2021/08/30 01:27:31;;;;;;;35.28;26.55;;;;;;;15.58;100.00;101465.44;4980891;28;20065;-81
2021/08/30 01:30:09;;;;;;;35.53;25.63;;;;;;;15.58;100.00;101470.84;4996195;28;20050;-82
2021/08/30 01:32:37;;;;;;;33.92;25.38;;;;;;;15.56;100.00;101472.91;5012070;28;20360;-82
2021/08/30 01:35:07;;;;;;;38.22;26.25;;;;;;;15.58;100.00;101467.31;4999221;28;20069;-83
2021/08/30 01:37:35;;;;;;;37.50;25.65;;;;;;;15.58;100.00;101472.72;4997399;28;20522;-82
2021/08/30 01:40:01;;;;;;;37.37;26.70;;;;;;;15.58;100.00;101465.44;5012552;28;20049;-81
2021/08/30 01:42:29;;;;;;;34.78;26.48;;;;;;;15.58;100.00;101472.72;4995279;28;20812;-82
2021/08/30 01:44:57;;;;;;;40.33;27.33;;;;;;;15.58;100.00;101465.44;4989420;28;20072;-83
2021/08/30 01:47:23;;;;;;;36.88;26.42;;;;;;;15.60;100.00;101475.25;4997487;28;20046;-83
2021/08/30 01:50:01;;;;;;;38.70;27.50;;;;;;;15.57;100.00;101463.78;5004311;28;20062;-81
2021/08/30 01:52:29;;;;;;;36.58;26.58;;;;;;;15.56;100.00;101472.91;5000335;28;20046;-82
2021/08/30 01:54:55;;;;;;;41.30;28.75;;;;;;;15.57;100.00;101476.47;5014440;28;20207;-81
2021/08/30 01:57:23;;;;;;;36.92;26.83;;;;;;;15.57;100.00;101469.19;4996569;28;20033;-81
2021/08/30 02:02:32;;;;;;;40.10;27.73;;;;;;;15.58;100.00;101476.25;4999965;28;20056;-81
2021/08/30 02:04:58;;;;;;;40.75;28.73;;;;;;;15.58;100.00;101476.25;5000807;28;20538;-81
2021/08/30 02:07:23;;;;;;;38.55;27.88;;;;;;;15.59;100.00;101474.41;4998592;28;20050;-82
2021/08/30 02:09:49;;;;;;;40.13;27.65;;;;;;;15.58;100.00;101475.44;4986421;28;20080;-82
2021/08/30 02:12:14;;;;;;;40.88;27.35;;;;;;;15.58;100.00;101476.25;4998593;28;20073;-81
2021/08/30 02:14:39;;;;;;;38.72;27.73;;;;;;;15.63;100.00;101477.59;4972341;28;20041;-83
2021/08/30 02:17:10;;;;;;;38.53;26.77;;;;;;;15.62;100.00;101470.50;5010104;28;20042;-82
2021/08/30 02:19:46;;;;;;;41.78;28.45;;;;;;;15.63;100.00;101474.91;4996016;28;20521;-82
2021/08/30 02:22:20;;;;;;;39.33;27.70;;;;;;;15.60;100.00;101477.97;4995685;28;20053;-81
2021/08/30 02:24:50;;;;;;;40.10;29.15;;;;;;;15.57;100.00;101473.75;4996384;28;20129;-82
2021/08/30 02:27:25;;;;;;;43.03;28.73;;;;;;;15.57;100.00;101471.88;4990268;28;20045;-81
2021/08/30 02:29:59;;;;;;;41.22;28.05;;;;;;;15.60;100.00;101469.84;5002346;28;20046;-81
2021/08/30 02:32:26;;;;;;;47.13;29.27;;;;;;;15.57;100.00;101466.47;5000220;28;20442;-82
2021/08/30 02:34:55;;;;;;;41.25;28.77;;;;;;;15.55;100.00;101465.81;5002259;28;20096;-82
2021/08/30 02:37:22;;;;;;;;;;;;;;;15.57;100.00;101471.88;5002229;28;20100;-82
2021/08/30 02:39:49;;;;;;;44.67;28.80;;;;;;;15.53;100.00;101467.00;4996592;28;19921;-82
2021/08/30 02:42:17;;;;;;;47.00;30.25;;;;;;;15.51;100.00;101469.06;4999458;28;20038;-82
2021/08/30 02:44:43;;;;;;;43.35;28.73;;;;;;;15.55;100.00;101463.09;4999520;28;20106;-82
2021/08/30 02:47:10;;;;;;;45.33;29.52;;;;;;;15.56;100.00;101466.63;4998427;28;20045;-81
2021/08/30 02:49:38;;;;;;;45.05;30.08;;;;;;;15.56;100.00;101469.34;4998166;28;20042;-82
2021/08/30 02:52:05;;;;;;;42.45;28.85;;;;;;;15.60;100.00;101467.97;5000928;28;20383;-82
2021/08/30 02:54:33;;;;;;;43.47;29.55;;;;;;;15.56;100.00;101467.50;4998885;28;20046;-82
2021/08/30 02:57:03;;;;;;;45.20;29.90;;;;;;;15.58;100.00;101462.72;4997828;28;20046;-82
2021/08/30 02:59:29;;;;;;;42.05;27.70;;;;;;;15.61;100.00;101461.53;4997933;28;20042;-81
2021/08/30 03:01:54;;;;;;;44.65;29.52;;;;;;;15.61;100.00;101456.13;4994022;28;20096;-81
2021/08/30 03:04:20;;;;;;;43.63;29.08;;;;;;;15.61;100.00;101455.28;5001591;28;20068;-81
2021/08/30 03:06:47;;;;;;;47.80;29.60;;;;;;;15.62;100.00;101454.25;4987613;28;20104;-81
2021/08/30 03:09:12;;;;;;;46.35;29.60;;;;;;;15.63;100.00;101453.25;4995253;28;20046;-81
2021/08/30 03:11:39;;;;;;;43.40;29.23;;;;;;;15.62;100.00;101452.38;4997354;28;20062;-83
2021/08/30 03:14:05;;;;;;;46.92;30.05;;;;;;;15.63;100.00;101450.56;4998979;28;20050;-81
2021/08/30 03:16:34;;;;;;;50.63;29.98;;;;;;;15.61;100.00;101448.00;4996407;28;20050;-81
2021/08/30 03:19:00;;;;;;;47.53;31.50;;;;;;;15.60;100.00;101440.94;5004079;28;20072;-81
2021/08/30 03:21:27;;;;;;;47.30;29.40;;;;;;;15.61;100.00;101436.34;5005176;28;20445;-82
2021/08/30 03:23:54;;;;;;;45.90;31.17;;;;;;;15.57;100.00;101447.53;4995853;28;20072;-82
2021/08/30 03:26:22;;;;;;;54.97;31.63;;;;;;;15.58;100.00;101443.81;4984268;28;20049;-82
2021/08/30 03:28:48;;;;;;;45.83;30.50;;;;;;;15.55;100.00;101448.75;4982331;28;20494;-81
2021/08/30 03:31:14;;;;;;;47.45;31.00;;;;;;;15.56;100.00;101445.00;4997154;28;20050;-82
2021/08/30 03:33:42;;;;;;;46.13;29.70;;;;;;;15.56;100.00;101451.28;4999139;28;20041;-81
2021/08/30 03:36:09;;;;;;;46.13;30.83;;;;;;;15.55;100.00;101441.47;4992548;28;20537;-82
2021/08/30 03:38:35;;;;;;;44.88;28.58;;;;;;;15.56;100.00;101455.81;4999426;28;20037;-82
2021/08/30 03:41:02;;;;;;;46.63;30.13;;;;;;;15.55;100.00;101457.69;4990212;28;20455;-82
2021/08/30 03:43:28;;;;;;;43.53;30.95;;;;;;;15.56;100.00;101456.69;4993891;28;20080;-81
2021/08/30 03:45:55;;;;;;;45.88;30.83;;;;;;;15.56;100.00;101458.53;4991705;28;20050;-82
2021/08/30 03:48:23;;;;;;;48.90;31.73;;;;;;;15.57;100.00;101460.22;4990878;28;20069;-82
2021/08/30 03:50:49;;;;;;;48.00;30.50;;;;;;;15.58;100.00;101462.72;5001003;28;20089;-81
2021/08/30 03:53:18;;;;;;;45.53;30.80;;;;;;;15.56;100.00;101461.22;4988520;28;20399;-81
2021/08/30 03:55:44;;;;;;;49.80;32.10;;;;;;;15.54;100.00;101457.88;4992593;28;20034;-83
2021/08/30 03:58:10;;;;;;;50.83;32.42;;;;;;;15.56;100.00;101459.41;5001973;28;20054;-80
2021/08/30 04:00:36;;;;;;;47.25;31.02;;;;;;;15.56;100.00;101455.81;4996718;28;20080;-81
2021/08/30 04:03:03;;;;;;;48.03;31.55;;;;;;;15.55;100.00;101454.16;5000981;28;20077;-82
2021/08/30 04:05:29;;;;;;;47.35;30.48;;;;;;;15.57;100.00;101449.41;4999688;28;20301;-81
2021/08/30 04:07:58;;;;;;;45.53;30.77;;;;;;;15.56;100.00;101448.56;4996428;28;20100;-80
2021/08/30 04:10:25;;;;;;;46.97;31.02;;;;;;;15.55;100.00;101438.75;4998518;28;20278;-81
2021/08/30 04:12:52;;;;;;;45.25;30.70;;;;;;;15.53;100.00;101442.66;4996669;28;20076;-83
2021/08/30 04:15:17;;;;;;;45.60;30.65;;;;;;;15.53;100.00;101450.78;4978178;28;20046;-83
2021/08/30 04:17:43;;;;;;;48.42;31.77;;;;;;;15.53;100.00;101450.78;4995365;28;20152;-84
2021/08/30 04:20:09;;;;;;;46.67;30.42;;;;;;;15.52;100.00;101449.09;4996518;28;20038;-83
2021/08/30 04:22:35;;;;;;;49.60;31.83;;;;;;;15.52;100.00;101454.50;4968182;28;20076;-82
2021/08/30 04:25:05;;;;;;;50.35;30.38;;;;;;;15.51;100.00;101450.13;4995467;28;20395;-81
2021/08/30 04:27:30;;;;;;;50.40;30.98;;;;;;;15.51;100.00;101455.53;4997289;28;20128;-83
2021/08/30 04:29:56;;;;;;;46.55;31.23;;;;;;;15.49;100.00;101453.00;4993447;28;20519;-81
2021/08/30 04:32:21;;;;;;;47.40;29.63;;;;;;;15.53;100.00;101462.44;4990010;28;20042;-82
2021/08/30 04:34:46;;;;;;;48.58;32.63;;;;;;;15.52;100.00;101452.66;4996420;28;20315;-83
2021/08/30 04:37:12;;;;;;;48.28;29.98;;;;;;;15.49;100.00;101447.59;4997063;28;20092;-82
2021/08/30 04:39:37;;;;;;;49.30;31.58;;;;;;;15.53;100.00;101457.03;4994235;28;20541;-82
2021/08/30 04:42:05;;;;;;;47.38;32.00;;;;;;;15.53;100.00;101467.84;4999532;28;20180;-82
2021/08/30 04:44:31;;;;;;;46.38;31.75;;;;;;;15.52;100.00;101460.75;4992826;28;20042;-82
2021/08/30 04:46:56;;;;;;;50.65;30.83;;;;;;;15.52;100.00;101466.16;5001866;28;20052;-82
2021/08/30 04:49:22;;;;;;;44.42;30.08;;;;;;;15.53;100.00;101453.47;4998184;28;20046;-82
2021/08/30 04:51:47;;;;;;;47.05;30.63;;;;;;;15.51;100.00;101463.66;4990848;28;20503;-82
2021/08/30 04:54:13;;;;;;;43.90;30.60;;;;;;;15.51;100.00;101463.66;4989058;28;20402;-82
2021/08/30 04:56:38;;;;;;;43.60;30.05;;;;;;;15.52;100.00;101468.88;4996517;28;20410;-82
2021/08/30 04:59:04;;;;;;;46.97;31.00;;;;;;;15.50;100.00;101465.50;4996180;28;20057;-82
2021/08/30 05:01:29;;;;;;;48.72;31.27;;;;;;;15.47;100.00;101465.84;4999002;28;20044;-82
2021/08/30 05:03:54;;;;;;;46.20;31.33;;;;;;;15.52;100.00;101474.28;4996708;28;20046;-81
2021/08/30 05:06:20;;;;;;;47.17;29.98;;;;;;;15.52;100.00;101474.28;5000466;28;20045;-82
2021/08/30 05:08:45;;;;;;;46.67;30.92;;;;;;;15.50;100.00;101470.91;4970762;28;20046;-81
2021/08/30 05:11:11;;;;;;;46.10;30.50;;;;;;;15.52;100.00;101477.00;4994754;28;20127;-81
2021/08/30 05:13:37;;;;;;;45.70;30.80;;;;;;;15.52;100.00;101482.41;4988255;28;20037;-82
2021/08/30 05:16:03;;;;;;;45.00;31.35;;;;;;;15.52;100.00;101487.81;4997594;28;20042;-82
2021/08/30 05:18:28;;;;;;;46.00;31.23;;;;;;;15.52;100.00;101484.25;4998524;28;20111;-82
2021/08/30 05:20:53;;;;;;;44.58;31.00;;;;;;;15.54;100.00;101488.47;5004502;28;20041;-82
2021/08/30 05:23:19;;;;;;;48.33;32.10;;;;;;;15.55;100.00;101492.84;5006742;28;20034;-82
2021/08/30 05:25:45;;;;;;;45.70;30.48;;;;;;;15.56;100.00;101499.97;5004824;28;20156;-81
2021/08/30 05:28:10;;;;;;;47.90;30.55;;;;;;;15.55;100.00;101503.69;5003741;28;20046;-81
2021/08/30 05:30:36;;;;;;;44.33;30.50;;;;;;;15.58;100.00;101508.72;5002361;28;20293;-82
2021/08/30 05:33:04;;;;;;;46.92;31.67;;;;;;;15.61;100.00;101501.28;5006798;28;20077;-81
2021/08/30 05:35:29;;;;;;;48.85;31.65;;;;;;;15.57;100.00;101507.06;5003649;28;20041;-81
2021/08/30 05:37:55;;;;;;;46.03;30.67;;;;;;;15.57;100.00;101509.75;4999241;28;20088;-82
2021/08/30 05:40:20;;;;;;;49.95;31.38;;;;;;;15.61;100.00;101503.97;4999645;28;20088;-82
2021/08/30 05:42:46;;;;;;;43.50;30.23;;;;;;;15.62;100.00;101511.06;5002224;28;20030;-82
2021/08/30 05:45:11;;;;;;;44.75;30.45;;;;;;;15.65;100.00;101513.41;5003834;28;20034;-82
2021/08/30 05:47:36;;;;;;;44.10;30.90;;;;;;;15.65;100.00;101511.56;5005432;28;20038;-82
2021/08/30 05:50:02;;;;;;;46.78;32.08;;;;;;;15.65;100.00;101503.47;5004414;28;20058;-82
2021/08/30 05:52:27;;;;;;;44.55;31.23;;;;;;;15.66;100.00;101515.13;5002242;28;20404;-81
2021/08/30 05:54:53;;;;;;;49.10;32.67;;;;;;;15.71;100.00;101520.88;5002169;28;20753;-82
2021/08/30 05:57:18;;;;;;;47.58;29.67;;;;;;;15.71;100.00;101518.16;5005298;28;20042;-83
2021/08/30 05:59:43;;;;;;;44.40;30.98;;;;;;;15.72;100.00;101522.53;4986966;28;20042;-82
2021/08/30 06:02:10;;;;;;;42.85;30.20;;;;;;;15.74;100.00;101520.50;5003871;28;20491;-82
2021/08/30 06:04:36;;;;;;;42.92;29.13;;;;;;;15.74;100.00;101517.78;4986304;28;20188;-82
2021/08/30 06:07:02;;;;;;;48.35;31.38;;;;;;;15.75;100.00;101508.66;5004658;28;20267;-82
2021/08/30 06:09:29;;;;;;;43.80;29.08;;;;;;;15.76;100.00;101510.31;5005222;28;20050;-82
2021/08/30 06:11:54;;;;;;;44.08;28.10;;;;;;;15.80;100.00;101511.66;5003202;28;20046;-82
2021/08/30 06:14:20;;;;;;;45.95;28.75;;;;;;;15.82;100.00;101508.75;5003717;28;20037;-82
2021/08/30 06:16:46;;;;;;;47.05;29.92;;;;;;;15.82;100.00;101509.59;5000804;28;20136;-82
2021/08/30 06:19:11;;;;;;;43.20;28.50;;;;;;;15.85;100.00;101503.81;5004887;28;20129;-82
2021/08/30 06:21:36;;;;;;;41.67;29.52;;;;;;;15.89;100.00;101507.03;4970611;28;20490;-82
2021/08/30 06:24:02;;;;;;;42.08;29.55;;;;;;;15.90;100.00;101506.00;5004715;28;20068;-82
2021/08/30 06:26:27;;;;;;;37.85;26.27;;;;;;;15.91;100.00;101499.53;5003444;28;20133;-82
2021/08/30 06:28:52;;;;;;;41.08;28.63;;;;;;;15.93;100.00;101502.91;4984855;28;20038;-82
2021/08/30 06:31:18;;;;;;;42.53;28.90;;;;;;;15.95;100.00;101501.72;5003021;28;20193;-82
2021/08/30 06:33:43;;;;;;;37.42;27.75;;;;;;;15.97;100.00;101502.38;5002540;28;20096;-82
2021/08/30 06:36:09;;;;;;;38.88;27.88;;;;;;;16.03;100.00;101492.69;5004871;28;20053;-82
2021/08/30 06:38:34;;;;;;;40.00;27.30;;;;;;;16.05;100.00;101493.31;5005450;28;20174;-82
2021/08/30 06:41:00;;;;;;;40.17;26.80;;;;;;;16.10;100.00;101495.50;5002946;28;20046;-82
2021/08/30 06:43:25;;;;;;;34.97;25.63;;;;;;;16.14;100.00;101503.06;5003017;28;20344;-82
2021/08/30 06:45:51;;;;;;;36.03;25.67;;;;;;;16.22;100.00;101502.13;5007123;28;20041;-82
2021/08/30 06:48:16;;;;;;;34.67;26.55;;;;;;;16.18;100.00;101503.53;5006852;28;20490;-82
2021/08/30 06:50:42;;;;;;;34.70;25.98;;;;;;;16.23;100.00;101511.97;4990022;28;20050;-82
2021/08/30 06:53:08;;;;;;;33.42;25.05;;;;;;;16.24;100.00;101514.47;5005979;28;20376;-82
2021/08/30 06:55:33;;;;;;;32.67;23.75;;;;;;;16.28;100.00;101500.56;5006788;28;20041;-82
2021/08/30 06:57:58;;;;;;;35.88;25.95;;;;;;;16.30;100.00;101510.19;5007118;28;20042;-82
2021/08/30 07:00:25;;;;;;;36.92;25.60;;;;;;;16.26;100.00;101506.19;5008196;28;20450;-82
2021/08/30 07:02:50;;;;;;;30.92;23.52;;;;;;;16.26;100.00;101510.75;5005880;28;20038;-82
2021/08/30 07:05:15;;;;;;;36.35;24.50;;;;;;;16.28;100.00;101508.69;5005011;28;20461;-82
2021/08/30 07:07:41;;;;;;;31.48;23.02;;;;;;;16.32;100.00;101505.44;5005724;28;20129;-82
2021/08/30 07:10:07;;;;;;;33.10;24.67;;;;;;;16.34;100.00;101516.06;4990446;28;20546;-82
2021/08/30 07:12:33;;;;;;;32.72;24.85;;;;;;;16.37;100.00;101507.56;5007645;28;20030;-82
2021/08/30 07:14:58;;;;;;;30.98;22.83;;;;;;;16.39;100.00;101509.06;5006848;28;20100;-82
2021/08/30 07:17:23;;;;;;;32.38;21.75;;;;;;;16.48;100.00;101515.25;5005703;28;20136;-81
2021/08/30 07:19:49;;;;;;;33.00;23.17;;;;;;;16.54;100.00;101509.09;5005941;28;20274;-82
2021/08/30 07:22:14;;;;;;;30.90;21.80;;;;;;;16.66;100.00;101509.47;5006377;28;20050;-82
2021/08/30 07:24:40;;;;;;;32.40;22.40;;;;;;;16.75;100.00;101504.81;5007147;28;20042;-82
2021/08/30 07:27:05;;;;;;;29.23;20.65;;;;;;;16.77;100.00;101497.34;5005544;28;20057;-82
2021/08/30 07:29:31;;;;;;;26.27;19.02;;;;;;;16.84;100.00;101503.72;5002792;28;20042;-82
2021/08/30 07:31:57;;;;;;;26.67;21.17;;;;;;;16.89;100.00;101509.41;4997034;28;20198;-82
2021/08/30 07:34:24;;;;;;;25.05;19.83;;;;;;;16.92;100.00;101515.28;5000350;28;20048;-82
2021/08/30 07:36:51;;;;;;;27.67;19.23;;;;;;;17.00;100.00;101513.50;5004280;28;20107;-82
2021/08/30 07:39:16;;;;;;;27.58;20.40;;;;;;;16.98;100.00;101507.44;5001135;28;20046;-82
2021/08/30 07:41:42;;;;;;;28.25;19.50;;;;;;;16.98;100.00;101518.28;4996840;28;20042;-82
2021/08/30 07:44:07;;;;;;;25.77;18.92;;;;;;;17.02;100.00;101514.16;5001782;28;20337;-82
2021/08/30 07:46:32;;;;;;;27.45;19.73;;;;;;;17.04;100.00;101520.25;4988467;28;20136;-82
2021/08/30 07:48:58;;;;;;;28.55;18.83;;;;;;;17.11;100.00;101526.56;4999892;28;20112;-81
2021/08/30 07:51:23;;;;;;;26.65;18.85;;;;;;;17.12;100.00;101522.84;4981187;28;20483;-82
2021/08/30 07:53:48;;;;;;;25.83;18.40;;;;;;;17.20;100.00;101520.00;4998145;28;20041;-82
2021/08/30 07:56:14;;;;;;;24.05;18.30;;;;;;;17.25;100.00;101524.88;5007953;28;20073;-82
2021/08/30 07:58:39;;;;;;;24.73;19.00;;;;;;;17.27;100.00;101529.06;4998643;28;20073;-82
2021/08/30 08:01:05;;;;;;;23.00;17.75;;;;;;;17.33;100.00;101528.31;4997449;28;20451;-82
2021/08/30 08:03:30;;;;;;;23.55;18.25;;;;;;;17.42;100.00;101520.06;4996638;28;20045;-82
2021/08/30 08:05:56;;;;;;;22.23;17.08;;;;;;;17.51;100.00;101524.31;4992716;28;20056;-82
2021/08/30 08:08:21;;;;;;;26.52;18.20;;;;;;;17.51;100.00;101525.16;4981894;28;20254;-82
2021/08/30 08:10:47;;;;;;;23.95;17.60;;;;;;;17.61;100.00;101527.56;4994149;28;20117;-82
2021/08/30 08:13:12;;;;;;;24.60;18.05;;;;;;;17.66;100.00;101526.97;4996682;28;20435;-82
2021/08/30 08:15:39;;;;;;;20.08;16.17;;;;;;;17.64;100.00;101529.91;4997156;28;20124;-82
2021/08/30 08:18:04;;;;;;;21.77;16.30;;;;;;;17.71;100.00;101532.69;4998093;28;20133;-82
2021/08/30 08:20:31;;;;;;;22.88;18.00;;;;;;;17.71;100.00;101532.69;4999754;28;20128;-82
2021/08/30 08:22:58;;;;;;;22.58;17.08;;;;;;;17.77;100.00;101540.03;4996006;28;20041;-82
2021/08/30 08:25:23;;;;;;;22.88;16.88;;;;;;;17.76;100.00;101538.38;4995073;28;20042;-82
2021/08/30 08:27:49;;;;;;;22.33;17.35;;;;;;;17.73;100.00;101538.75;4996071;28;20052;-82
2021/08/30 08:30:14;;;;;;;21.25;17.08;;;;;;;17.74;100.00;101537.72;4964728;28;20039;-82
2021/08/30 08:32:41;;;;;;;23.55;17.15;;;;;;;17.74;100.00;101540.44;4999422;28;20042;-82
2021/08/30 08:35:07;;;;;;;23.38;17.48;;;;;;;17.75;100.00;101542.09;4995385;28;20395;-82
2021/08/30 08:37:33;;;;;;;21.67;17.33;;;;;;;17.80;100.00;101545.94;4994499;28;20046;-82
2021/08/30 08:39:58;;;;;;;22.85;16.77;;;;;;;17.84;100.00;101542.84;4967882;28;20060;-82
2021/08/30 08:42:24;;;;;;;21.95;17.35;;;;;;;17.81;100.00;101534.06;4992237;28;20404;-82
2021/08/30 08:44:49;;;;;;;25.98;18.20;;;;;;;17.81;100.00;101547.66;4997476;28;20297;-82
2021/08/30 08:47:16;;;;;;;23.67;17.38;;;;;;;17.80;100.00;101553.25;4996450;28;20052;-82
2021/08/30 08:49:51;;;;;;;21.08;16.23;;;;;;;17.80;100.00;101545.94;5001518;28;20049;-82
2021/08/30 08:52:21;;;;;;;23.40;16.85;;;;;;;17.83;100.00;101546.59;5010402;28;20191;-82
2021/08/30 08:54:47;;;;;;;22.75;17.02;;;;;;;17.89;100.00;101546.66;5013119;28;20038;-82
2021/08/30 08:57:12;;;;;;;22.00;16.17;;;;;;;17.95;100.00;101545.91;4997651;28;20396;-82
2021/08/30 08:59:38;;;;;;;23.42;16.73;;;;;;;18.02;100.00;101548.69;4980958;28;20034;-82
2021/08/30 09:02:06;;;;;;;22.05;16.20;;;;;;;18.04;100.00;101544.72;4989830;28;20287;-82
2021/08/30 09:04:34;;;;;;;21.08;15.23;;;;;;;18.10;100.00;101545.00;4997852;28;20486;-82
2021/08/30 09:07:10;;;;;;;19.50;14.15;;;;;;;18.23;100.00;101545.09;4998704;28;20140;-82
2021/08/30 09:09:38;;;;;;;19.48;15.02;;;;;;;18.24;99.84;101538.59;4996841;28;20095;-82
2021/08/30 09:12:03;;;;;;;17.73;14.20;;;;;;;18.24;99.73;101539.47;5008151;28;20561;-82
2021/08/30 09:14:29;;;;;;;18.05;14.00;;;;;;;18.30;99.12;101543.28;4996826;28;20045;-82
2021/08/30 09:17:07;;;;;;;18.95;14.55;;;;;;;18.34;99.11;101546.44;4980941;28;20169;-83
2021/08/30 09:19:33;;;;;;;17.67;14.45;;;;;;;18.39;99.50;101533.94;4996017;28;20038;-82
2021/08/30 09:22:02;;;;;;;17.42;13.98;;;;;;;18.56;100.00;101537.19;4995621;28;20120;-82
2021/08/30 09:24:28;;;;;;;17.15;12.70;;;;;;;18.74;99.07;101535.88;5007636;28;20121;-82
2021/08/30 09:26:56;;;;;;;18.42;13.38;;;;;;;18.80;97.22;101527.75;5010023;28;20137;-82
2021/08/30 09:29:24;;;;;;;18.15;14.27;;;;;;;18.82;97.99;101533.00;4999040;28;20050;-82
2021/08/30 09:32:15;;;;;;;17.30;13.65;;;;;;;18.82;96.82;101536.53;4993068;28;20046;-82
2021/08/30 09:34:49;;;;;;;17.65;12.68;;;;;;;18.83;95.73;101537.38;4994821;28;20113;-82
2021/08/30 09:37:17;;;;;;;17.05;13.40;;;;;;;18.82;95.62;101536.53;4994522;28;20052;-82
2021/08/30 09:39:45;;;;;;;15.75;13.38;;;;;;;18.81;94.87;101539.44;4995347;28;20538;-83
2021/08/30 09:42:11;;;;;;;17.52;14.20;;;;;;;18.80;95.19;101543.22;4997922;28;20050;-83
2021/08/30 09:44:36;;;;;;;17.98;13.05;;;;;;;18.81;95.83;101537.56;5009920;28;20044;-83
2021/08/30 09:47:10;;;;;;;16.73;13.73;;;;;;;18.82;95.93;101544.69;4993204;28;20050;-83
2021/08/30 09:49:36;;;;;;;15.73;13.23;;;;;;;18.87;96.11;101538.66;4992526;28;20038;-83
2021/08/30 09:52:02;;;;;;;18.63;13.70;;;;;;;18.89;95.81;101540.13;4996163;28;20545;-82
2021/08/30 09:54:27;;;;;;;16.63;13.75;;;;;;;18.87;96.27;101544.94;4990554;28;20066;-82
2021/08/30 09:56:53;;;;;;;18.48;13.85;;;;;;;18.87;95.78;101544.09;5000660;28;20044;-82
2021/08/30 09:59:20;;;;;;;22.42;13.50;;;;;;;18.80;95.38;101541.34;4993942;28;20041;-82
2021/08/30 10:01:46;;;;;;;16.65;13.05;;;;;;;18.81;95.97;101544.88;4996902;28;20572;-82
2021/08/30 10:04:16;;;;;;;19.70;13.75;;;;;;;18.78;96.07;101539.84;4992701;28;20049;-83
2021/08/30 10:06:42;;;;;;;16.13;12.70;;;;;;;18.80;95.26;101538.63;4996506;28;20124;-83
2021/08/30 10:09:13;;;;;;;17.50;13.20;;;;;;;18.96;96.02;101540.19;4996563;28;20577;-82
2021/08/30 10:11:39;;;;;;;17.80;12.13;;;;;;;19.05;94.50;101525.38;4994632;28;20069;-82
2021/08/30 10:14:11;;;;;;;15.95;11.95;;;;;;;19.08;94.30;101529.56;4997332;28;20534;-82
2021/08/30 10:16:38;;;;;;;14.52;12.10;;;;;;;19.09;94.80;101537.50;4997592;28;20046;-82
2021/08/30 10:19:03;;;;;;;19.67;13.57;;;;;;;19.15;94.10;101533.13;4996471;28;23197;-82
2021/08/30 10:21:30;;;;;;;17.08;12.68;;;;;;;19.19;94.42;101529.00;4986780;28;20125;-83
2021/08/30 10:23:56;;;;;;;15.07;13.27;;;;;;;19.13;93.27;101519.75;4997319;28;20076;-82
2021/08/30 10:26:23;;;;;;;15.68;12.52;;;;;;;19.17;93.63;101531.06;4998179;28;20305;-82
2021/08/30 10:28:49;;;;;;;17.40;12.88;;;;;;;19.18;92.72;101535.44;4999445;28;20046;-82
2021/08/30 10:31:25;;;;;;;18.63;13.52;;;;;;;19.17;93.39;101529.19;5010390;28;20241;-82
2021/08/30 10:33:53;;;;;;;16.73;13.82;;;;;;;19.16;93.97;101532.94;4996226;28;20524;-82
2021/08/30 10:36:23;;;;;;;19.80;12.83;;;;;;;19.23;93.92;101532.13;4993928;28;20050;-82
2021/08/30 10:39:18;;;;;;;17.85;12.82;;;;;;;19.28;93.13;101524.19;5000425;28;20048;-82
2021/08/30 10:41:45;;;;;;;16.98;12.57;;;;;;;19.40;94.93;101528.00;4998660;28;20033;-82
2021/08/30 10:44:14;;;;;;;17.80;13.05;;;;;;;19.57;92.20;101521.13;4987528;28;20121;-82
2021/08/30 10:47:00;;;;;;;16.40;11.65;;;;;;;19.75;91.22;101522.47;5001550;28;20368;-82
2021/08/30 10:49:31;;;;;;;13.90;10.82;;;;;;;19.89;89.23;101521.44;5009924;28;20129;-82
2021/08/30 10:52:06;;;;;;;15.05;11.07;;;;;;;20.02;88.91;101515.13;5001474;28;20148;-83
2021/08/30 10:54:32;;;;;;;12.75;10.65;;;;;;;20.25;89.73;101523.75;4997009;28;20478;-82
2021/08/30 10:57:01;;;;;;;11.85;9.52;;;;;;;20.39;85.60;101516.38;4999896;28;20034;-83
2021/08/30 10:59:30;;;;;;;11.77;10.02;;;;;;;20.32;85.84;101521.00;5014517;28;20053;-83
2021/08/30 11:02:00;;;;;;;12.25;8.98;;;;;;;20.35;86.25;101517.84;4985207;28;20076;-83
2021/08/30 11:04:34;;;;;;;11.85;9.30;;;;;;;20.31;85.72;101519.31;5001941;28;20049;-83
2021/08/30 11:07:00;;;;;;;14.60;10.18;;;;;;;20.23;86.17;101519.56;5011965;28;20462;-83